sensor_id;sensor_type;location;lat;lon;timestamp;temperature;humidity
11188;DHT22;5650;52.700;7.306;2023-05-10T00:00:48;14.50;99.90
11188;DHT22;5650;52.700;7.306;2023-05-10T00:03:18;14.50;99.90
11188;DHT22;5650;52.700;7.306;2023-05-10T00:05:45;14.50;99.90
11188;DHT22;5650;52.700;7.306;2023-05-10T00:08:15;14.40;99.90
11188;DHT22;5650;52.700;7.306;2023-05-10T00:10:42;14.40;99.90
11188;DHT22;5650;52.700;7.306;2023-05-10T00:13:09;14.50;99.90
11188;DHT22;5650;52.700;7.306;2023-05-10T00:15:37;14.40;99.90
11188;DHT22;5650;52.700;7.306;2023-05-10T00:18:05;14.40;99.90
11188;DHT22;5650;52.700;7.306;2023-05-10T00:20:33;14.40;99.90
11188;DHT22;5650;52.700;7.306;2023-05-10T00:23:03;14.40;99.90
11188;DHT22;5650;52.700;7.306;2023-05-10T00:25:33;14.40;99.90
11188;DHT22;5650;52.700;7.306;2023-05-10T00:28:00;14.40;99.90
11188;DHT22;5650;52.700;7.306;2023-05-10T00:30:28;14.40;99.90
11188;DHT22;5650;52.700;7.306;2023-05-10T00:32:58;14.40;99.90
11188;DHT22;5650;52.700;7.306;2023-05-10T00:35:28;14.40;99.90
11188;DHT22;5650;52.700;7.306;2023-05-10T00:37:55;14.40;99.90
11188;DHT22;5650;52.700;7.306;2023-05-10T00:40:22;14.40;99.90
11188;DHT22;5650;52.700;7.306;2023-05-10T00:42:52;14.40;99.90
11188;DHT22;5650;52.700;7.306;2023-05-10T00:45:24;14.40;99.90
11188;DHT22;5650;52.700;7.306;2023-05-10T00:47:56;14.40;99.90
11188;DHT22;5650;52.700;7.306;2023-05-10T00:50:31;14.40;99.90
11188;DHT22;5650;52.700;7.306;2023-05-10T00:53:02;14.40;99.90
11188;DHT22;5650;52.700;7.306;2023-05-10T00:55:30;14.40;99.90
11188;DHT22;5650;52.700;7.306;2023-05-10T00:58:04;14.40;99.90
11188;DHT22;5650;52.700;7.306;2023-05-10T01:00:34;14.40;99.90
11188;DHT22;5650;52.700;7.306;2023-05-10T01:03:02;14.40;99.90
11188;DHT22;5650;52.700;7.306;2023-05-10T01:05:31;14.40;99.90
11188;DHT22;5650;52.700;7.306;2023-05-10T01:08:01;14.30;99.90
11188;DHT22;5650;52.700;7.306;2023-05-10T01:10:29;14.20;99.90
11188;DHT22;5650;52.700;7.306;2023-05-10T01:12:56;14.10;99.90
11188;DHT22;5650;52.700;7.306;2023-05-10T01:15:23;14.00;99.90
11188;DHT22;5650;52.700;7.306;2023-05-10T01:17:51;14.00;99.90
11188;DHT22;5650;52.700;7.306;2023-05-10T01:20:25;14.00;99.90
11188;DHT22;5650;52.700;7.306;2023-05-10T01:23:33;13.90;99.90
11188;DHT22;5650;52.700;7.306;2023-05-10T01:26:26;13.90;99.90
11188;DHT22;5650;52.700;7.306;2023-05-10T01:29:19;13.90;99.90
11188;DHT22;5650;52.700;7.306;2023-05-10T01:32:26;13.90;99.90
11188;DHT22;5650;52.700;7.306;2023-05-10T01:34:59;13.90;99.90
11188;DHT22;5650;52.700;7.306;2023-05-10T01:37:37;13.80;99.90
11188;DHT22;5650;52.700;7.306;2023-05-10T01:40:13;13.90;99.90
11188;DHT22;5650;52.700;7.306;2023-05-10T01:42:49;13.80;99.90
11188;DHT22;5650;52.700;7.306;2023-05-10T01:45:30;13.80;99.90
11188;DHT22;5650;52.700;7.306;2023-05-10T01:48:05;13.80;99.90
11188;DHT22;5650;52.700;7.306;2023-05-10T01:50:34;13.80;99.90
11188;DHT22;5650;52.700;7.306;2023-05-10T01:53:02;13.80;99.90
11188;DHT22;5650;52.700;7.306;2023-05-10T01:55:40;13.70;99.90
11188;DHT22;5650;52.700;7.306;2023-05-10T01:58:13;13.70;99.90
11188;DHT22;5650;52.700;7.306;2023-05-10T02:00:43;13.70;99.90
11188;DHT22;5650;52.700;7.306;2023-05-10T02:03:14;13.70;99.90
11188;DHT22;5650;52.700;7.306;2023-05-10T02:05:46;13.70;99.90
11188;DHT22;5650;52.700;7.306;2023-05-10T02:08:15;13.70;99.90
11188;DHT22;5650;52.700;7.306;2023-05-10T02:10:50;13.70;99.90
11188;DHT22;5650;52.700;7.306;2023-05-10T02:13:24;13.70;99.90
11188;DHT22;5650;52.700;7.306;2023-05-10T02:15:53;13.70;99.90
11188;DHT22;5650;52.700;7.306;2023-05-10T02:18:37;13.60;99.90
11188;DHT22;5650;52.700;7.306;2023-05-10T02:21:10;13.60;99.90
11188;DHT22;5650;52.700;7.306;2023-05-10T02:23:38;13.60;99.90
11188;DHT22;5650;52.700;7.306;2023-05-10T02:26:06;13.60;99.90
11188;DHT22;5650;52.700;7.306;2023-05-10T02:28:38;13.60;99.90
11188;DHT22;5650;52.700;7.306;2023-05-10T02:31:06;13.60;99.90
11188;DHT22;5650;52.700;7.306;2023-05-10T02:33:35;13.60;99.90
11188;DHT22;5650;52.700;7.306;2023-05-10T02:36:12;13.60;99.90
11188;DHT22;5650;52.700;7.306;2023-05-10T02:38:41;13.60;99.90
11188;DHT22;5650;52.700;7.306;2023-05-10T02:41:08;13.60;99.90
11188;DHT22;5650;52.700;7.306;2023-05-10T02:43:40;13.60;99.90
11188;DHT22;5650;52.700;7.306;2023-05-10T02:46:12;13.60;99.90
11188;DHT22;5650;52.700;7.306;2023-05-10T02:48:39;13.60;99.90
11188;DHT22;5650;52.700;7.306;2023-05-10T02:51:11;13.60;99.90
11188;DHT22;5650;52.700;7.306;2023-05-10T02:53:48;13.70;99.90
11188;DHT22;5650;52.700;7.306;2023-05-10T02:56:25;13.70;99.90
11188;DHT22;5650;52.700;7.306;2023-05-10T02:58:55;13.60;99.90
11188;DHT22;5650;52.700;7.306;2023-05-10T03:01:26;13.60;99.90
11188;DHT22;5650;52.700;7.306;2023-05-10T03:03:56;13.60;99.90
11188;DHT22;5650;52.700;7.306;2023-05-10T03:06:25;13.60;99.90
11188;DHT22;5650;52.700;7.306;2023-05-10T03:08:55;13.70;99.90
11188;DHT22;5650;52.700;7.306;2023-05-10T03:11:39;13.70;99.90
11188;DHT22;5650;52.700;7.306;2023-05-10T03:14:19;13.60;99.90
11188;DHT22;5650;52.700;7.306;2023-05-10T03:16:56;13.60;99.90
11188;DHT22;5650;52.700;7.306;2023-05-10T03:19:35;13.60;99.90
11188;DHT22;5650;52.700;7.306;2023-05-10T03:22:10;13.60;99.90
11188;DHT22;5650;52.700;7.306;2023-05-10T03:24:39;13.60;99.90
11188;DHT22;5650;52.700;7.306;2023-05-10T03:27:08;13.60;99.90
11188;DHT22;5650;52.700;7.306;2023-05-10T03:29:36;13.60;99.90
11188;DHT22;5650;52.700;7.306;2023-05-10T03:32:07;13.60;99.90
11188;DHT22;5650;52.700;7.306;2023-05-10T03:34:41;13.60;99.90
11188;DHT22;5650;52.700;7.306;2023-05-10T03:37:10;13.60;99.90
11188;DHT22;5650;52.700;7.306;2023-05-10T03:39:40;13.60;99.90
11188;DHT22;5650;52.700;7.306;2023-05-10T03:42:07;13.60;99.90
11188;DHT22;5650;52.700;7.306;2023-05-10T03:44:37;13.60;99.90
11188;DHT22;5650;52.700;7.306;2023-05-10T03:47:04;13.60;99.90
11188;DHT22;5650;52.700;7.306;2023-05-10T03:49:31;13.60;99.90
11188;DHT22;5650;52.700;7.306;2023-05-10T03:51:59;13.60;99.90
11188;DHT22;5650;52.700;7.306;2023-05-10T03:54:27;13.50;99.90
11188;DHT22;5650;52.700;7.306;2023-05-10T03:56:54;13.50;99.90
11188;DHT22;5650;52.700;7.306;2023-05-10T03:59:22;13.50;99.90
11188;DHT22;5650;52.700;7.306;2023-05-10T04:01:49;13.50;99.90
11188;DHT22;5650;52.700;7.306;2023-05-10T04:04:19;13.50;99.90
11188;DHT22;5650;52.700;7.306;2023-05-10T04:06:47;13.50;99.90
11188;DHT22;5650;52.700;7.306;2023-05-10T04:09:28;13.50;99.90
11188;DHT22;5650;52.700;7.306;2023-05-10T04:12:04;13.50;99.90
11188;DHT22;5650;52.700;7.306;2023-05-10T04:14:31;13.60;99.90
11188;DHT22;5650;52.700;7.306;2023-05-10T04:16:59;13.60;99.90
11188;DHT22;5650;52.700;7.306;2023-05-10T04:19:29;13.60;99.90
11188;DHT22;5650;52.700;7.306;2023-05-10T04:21:57;13.60;99.90
11188;DHT22;5650;52.700;7.306;2023-05-10T04:24:24;13.60;99.90
11188;DHT22;5650;52.700;7.306;2023-05-10T04:26:52;13.60;99.90
11188;DHT22;5650;52.700;7.306;2023-05-10T04:29:22;13.60;99.90
11188;DHT22;5650;52.700;7.306;2023-05-10T04:31:49;13.60;99.90
11188;DHT22;5650;52.700;7.306;2023-05-10T04:34:16;13.60;99.90
11188;DHT22;5650;52.700;7.306;2023-05-10T04:36:44;13.60;99.90
11188;DHT22;5650;52.700;7.306;2023-05-10T04:39:11;13.60;99.90
11188;DHT22;5650;52.700;7.306;2023-05-10T04:41:39;13.60;99.90
11188;DHT22;5650;52.700;7.306;2023-05-10T04:44:09;13.60;99.90
11188;DHT22;5650;52.700;7.306;2023-05-10T04:46:38;13.60;99.90
11188;DHT22;5650;52.700;7.306;2023-05-10T04:49:05;13.60;99.90
11188;DHT22;5650;52.700;7.306;2023-05-10T04:51:32;13.60;99.90
11188;DHT22;5650;52.700;7.306;2023-05-10T04:53:59;13.60;99.90
11188;DHT22;5650;52.700;7.306;2023-05-10T04:56:26;13.60;99.90
11188;DHT22;5650;52.700;7.306;2023-05-10T04:58:54;13.60;99.90
11188;DHT22;5650;52.700;7.306;2023-05-10T05:01:21;13.60;99.90
11188;DHT22;5650;52.700;7.306;2023-05-10T05:03:50;13.70;99.90
11188;DHT22;5650;52.700;7.306;2023-05-10T05:06:18;13.70;99.90
11188;DHT22;5650;52.700;7.306;2023-05-10T05:08:46;13.70;99.90
11188;DHT22;5650;52.700;7.306;2023-05-10T05:11:15;13.70;99.90
11188;DHT22;5650;52.700;7.306;2023-05-10T05:13:42;13.60;99.90
11188;DHT22;5650;52.700;7.306;2023-05-10T05:16:09;13.60;99.90
11188;DHT22;5650;52.700;7.306;2023-05-10T05:18:37;13.70;99.90
11188;DHT22;5650;52.700;7.306;2023-05-10T05:21:14;13.70;99.90
11188;DHT22;5650;52.700;7.306;2023-05-10T05:23:42;13.70;99.90
11188;DHT22;5650;52.700;7.306;2023-05-10T05:26:09;13.70;99.90
11188;DHT22;5650;52.700;7.306;2023-05-10T05:28:43;13.70;99.90
11188;DHT22;5650;52.700;7.306;2023-05-10T05:31:10;13.70;99.90
11188;DHT22;5650;52.700;7.306;2023-05-10T05:33:40;13.70;99.90
11188;DHT22;5650;52.700;7.306;2023-05-10T05:36:08;13.70;99.90
11188;DHT22;5650;52.700;7.306;2023-05-10T05:38:39;13.70;99.90
11188;DHT22;5650;52.700;7.306;2023-05-10T05:41:06;13.70;99.90
11188;DHT22;5650;52.700;7.306;2023-05-10T05:43:36;13.70;99.90
11188;DHT22;5650;52.700;7.306;2023-05-10T05:46:06;13.70;99.90
11188;DHT22;5650;52.700;7.306;2023-05-10T05:48:33;13.70;99.90
11188;DHT22;5650;52.700;7.306;2023-05-10T05:51:00;13.80;99.90
11188;DHT22;5650;52.700;7.306;2023-05-10T05:53:28;13.80;99.90
11188;DHT22;5650;52.700;7.306;2023-05-10T05:55:57;13.80;99.90
11188;DHT22;5650;52.700;7.306;2023-05-10T05:58:25;13.90;99.90
11188;DHT22;5650;52.700;7.306;2023-05-10T06:00:53;13.90;99.90
11188;DHT22;5650;52.700;7.306;2023-05-10T06:03:21;13.90;99.90
11188;DHT22;5650;52.700;7.306;2023-05-10T06:05:48;14.00;99.90
11188;DHT22;5650;52.700;7.306;2023-05-10T06:08:15;14.00;99.90
11188;DHT22;5650;52.700;7.306;2023-05-10T06:10:43;14.00;99.90
11188;DHT22;5650;52.700;7.306;2023-05-10T06:13:15;14.00;99.90
11188;DHT22;5650;52.700;7.306;2023-05-10T06:15:46;14.10;99.90
11188;DHT22;5650;52.700;7.306;2023-05-10T06:18:16;14.10;99.90
11188;DHT22;5650;52.700;7.306;2023-05-10T06:20:46;14.10;99.90
11188;DHT22;5650;52.700;7.306;2023-05-10T06:23:16;14.20;99.90
11188;DHT22;5650;52.700;7.306;2023-05-10T06:25:46;14.20;99.90
11188;DHT22;5650;52.700;7.306;2023-05-10T06:28:17;14.30;99.90
11188;DHT22;5650;52.700;7.306;2023-05-10T06:30:44;14.40;99.90
11188;DHT22;5650;52.700;7.306;2023-05-10T06:33:12;14.40;99.90
11188;DHT22;5650;52.700;7.306;2023-05-10T06:35:48;14.50;99.90
11188;DHT22;5650;52.700;7.306;2023-05-10T06:38:15;14.50;99.90
11188;DHT22;5650;52.700;7.306;2023-05-10T06:40:43;14.50;99.90
11188;DHT22;5650;52.700;7.306;2023-05-10T06:43:15;14.60;99.90
11188;DHT22;5650;52.700;7.306;2023-05-10T06:45:45;14.60;99.90
11188;DHT22;5650;52.700;7.306;2023-05-10T06:48:18;14.70;99.90
11188;DHT22;5650;52.700;7.306;2023-05-10T06:50:51;14.70;99.90
11188;DHT22;5650;52.700;7.306;2023-05-10T06:53:24;14.80;99.90
11188;DHT22;5650;52.700;7.306;2023-05-10T06:55:52;14.80;99.90
11188;DHT22;5650;52.700;7.306;2023-05-10T06:58:20;14.80;99.90
11188;DHT22;5650;52.700;7.306;2023-05-10T07:00:50;14.90;99.90
11188;DHT22;5650;52.700;7.306;2023-05-10T07:03:17;14.90;99.90
11188;DHT22;5650;52.700;7.306;2023-05-10T07:05:50;15.00;99.90
11188;DHT22;5650;52.700;7.306;2023-05-10T07:08:18;15.00;99.90
11188;DHT22;5650;52.700;7.306;2023-05-10T07:10:45;15.00;99.90
11188;DHT22;5650;52.700;7.306;2023-05-10T07:13:15;15.00;99.90
11188;DHT22;5650;52.700;7.306;2023-05-10T07:15:47;15.00;99.90
11188;DHT22;5650;52.700;7.306;2023-05-10T07:18:14;15.00;99.90
11188;DHT22;5650;52.700;7.306;2023-05-10T07:20:59;15.10;99.90
11188;DHT22;5650;52.700;7.306;2023-05-10T07:23:26;15.20;99.90
11188;DHT22;5650;52.700;7.306;2023-05-10T07:25:56;15.30;99.90
11188;DHT22;5650;52.700;7.306;2023-05-10T07:28:24;15.40;99.90
11188;DHT22;5650;52.700;7.306;2023-05-10T07:30:52;15.50;99.90
11188;DHT22;5650;52.700;7.306;2023-05-10T07:33:19;15.40;99.90
11188;DHT22;5650;52.700;7.306;2023-05-10T07:35:47;15.50;99.90
11188;DHT22;5650;52.700;7.306;2023-05-10T07:38:17;15.40;99.90
11188;DHT22;5650;52.700;7.306;2023-05-10T07:40:46;15.40;99.90
11188;DHT22;5650;52.700;7.306;2023-05-10T07:43:13;15.50;99.90
11188;DHT22;5650;52.700;7.306;2023-05-10T07:45:44;15.50;99.90
11188;DHT22;5650;52.700;7.306;2023-05-10T07:48:15;15.50;99.90
11188;DHT22;5650;52.700;7.306;2023-05-10T07:50:43;15.50;99.90
11188;DHT22;5650;52.700;7.306;2023-05-10T07:53:10;15.50;99.90
11188;DHT22;5650;52.700;7.306;2023-05-10T07:55:37;15.60;99.90
11188;DHT22;5650;52.700;7.306;2023-05-10T07:58:04;15.60;99.90
11188;DHT22;5650;52.700;7.306;2023-05-10T08:00:34;15.60;99.90
11188;DHT22;5650;52.700;7.306;2023-05-10T08:03:06;15.60;99.90
11188;DHT22;5650;52.700;7.306;2023-05-10T08:05:35;15.60;99.90
11188;DHT22;5650;52.700;7.306;2023-05-10T08:08:08;15.60;99.90
11188;DHT22;5650;52.700;7.306;2023-05-10T08:10:36;15.60;99.90
11188;DHT22;5650;52.700;7.306;2023-05-10T08:13:06;15.50;99.90
11188;DHT22;5650;52.700;7.306;2023-05-10T08:15:33;15.40;99.90
11188;DHT22;5650;52.700;7.306;2023-05-10T08:18:09;15.30;99.90
11188;DHT22;5650;52.700;7.306;2023-05-10T08:20:38;15.30;99.90
11188;DHT22;5650;52.700;7.306;2023-05-10T08:23:08;15.20;99.90
11188;DHT22;5650;52.700;7.306;2023-05-10T08:25:41;15.20;99.90
11188;DHT22;5650;52.700;7.306;2023-05-10T08:28:08;15.20;99.90
11188;DHT22;5650;52.700;7.306;2023-05-10T08:30:49;15.10;99.90
11188;DHT22;5650;52.700;7.306;2023-05-10T08:33:28;15.10;99.90
11188;DHT22;5650;52.700;7.306;2023-05-10T08:35:57;15.10;99.90
11188;DHT22;5650;52.700;7.306;2023-05-10T08:38:27;15.00;99.90
11188;DHT22;5650;52.700;7.306;2023-05-10T08:40:55;15.10;99.90
11188;DHT22;5650;52.700;7.306;2023-05-10T08:43:28;15.10;99.90
11188;DHT22;5650;52.700;7.306;2023-05-10T08:46:00;15.10;99.90
11188;DHT22;5650;52.700;7.306;2023-05-10T08:48:32;15.10;99.90
11188;DHT22;5650;52.700;7.306;2023-05-10T08:51:03;15.20;99.90
11188;DHT22;5650;52.700;7.306;2023-05-10T08:53:32;15.20;99.90
11188;DHT22;5650;52.700;7.306;2023-05-10T08:56:01;15.30;99.90
11188;DHT22;5650;52.700;7.306;2023-05-10T08:58:31;15.30;99.90
11188;DHT22;5650;52.700;7.306;2023-05-10T09:01:02;15.30;99.90
11188;DHT22;5650;52.700;7.306;2023-05-10T09:03:32;15.30;99.90
11188;DHT22;5650;52.700;7.306;2023-05-10T09:05:59;15.40;99.90
11188;DHT22;5650;52.700;7.306;2023-05-10T09:08:31;15.50;99.90
11188;DHT22;5650;52.700;7.306;2023-05-10T09:11:00;15.40;99.90
11188;DHT22;5650;52.700;7.306;2023-05-10T09:13:32;15.50;99.90
11188;DHT22;5650;52.700;7.306;2023-05-10T09:16:00;15.40;99.90
11188;DHT22;5650;52.700;7.306;2023-05-10T09:18:31;15.40;99.90
11188;DHT22;5650;52.700;7.306;2023-05-10T09:21:01;15.30;99.90
11188;DHT22;5650;52.700;7.306;2023-05-10T09:23:30;15.30;99.90
11188;DHT22;5650;52.700;7.306;2023-05-10T09:26:04;15.30;99.90
11188;DHT22;5650;52.700;7.306;2023-05-10T09:28:34;15.20;99.90
11188;DHT22;5650;52.700;7.306;2023-05-10T09:31:16;15.20;99.90
11188;DHT22;5650;52.700;7.306;2023-05-10T09:33:44;15.20;99.90
11188;DHT22;5650;52.700;7.306;2023-05-10T09:36:12;15.30;99.90
11188;DHT22;5650;52.700;7.306;2023-05-10T09:38:47;15.30;99.90
11188;DHT22;5650;52.700;7.306;2023-05-10T09:41:18;15.30;99.90
11188;DHT22;5650;52.700;7.306;2023-05-10T09:43:46;15.40;99.90
11188;DHT22;5650;52.700;7.306;2023-05-10T09:46:15;15.40;99.90
11188;DHT22;5650;52.700;7.306;2023-05-10T09:48:44;15.50;99.90
11188;DHT22;5650;52.700;7.306;2023-05-10T09:51:19;15.50;99.90
11188;DHT22;5650;52.700;7.306;2023-05-10T09:53:47;15.50;99.90
11188;DHT22;5650;52.700;7.306;2023-05-10T09:56:37;15.50;99.90
11188;DHT22;5650;52.700;7.306;2023-05-10T09:59:17;15.40;99.90
11188;DHT22;5650;52.700;7.306;2023-05-10T10:01:55;15.40;99.90
11188;DHT22;5650;52.700;7.306;2023-05-10T10:04:27;15.40;99.90
11188;DHT22;5650;52.700;7.306;2023-05-10T10:07:05;15.50;99.90
11188;DHT22;5650;52.700;7.306;2023-05-10T10:09:34;15.60;99.90
11188;DHT22;5650;52.700;7.306;2023-05-10T10:12:05;15.70;99.90
11188;DHT22;5650;52.700;7.306;2023-05-10T10:14:32;15.80;99.90
11188;DHT22;5650;52.700;7.306;2023-05-10T10:17:03;15.90;99.90
11188;DHT22;5650;52.700;7.306;2023-05-10T10:19:32;16.10;99.90
11188;DHT22;5650;52.700;7.306;2023-05-10T10:22:05;16.10;99.90
11188;DHT22;5650;52.700;7.306;2023-05-10T10:24:45;16.20;99.90
11188;DHT22;5650;52.700;7.306;2023-05-10T10:27:22;16.20;99.90
11188;DHT22;5650;52.700;7.306;2023-05-10T10:29:59;16.20;99.90
11188;DHT22;5650;52.700;7.306;2023-05-10T10:32:42;16.10;99.90
11188;DHT22;5650;52.700;7.306;2023-05-10T10:35:17;16.10;99.90
11188;DHT22;5650;52.700;7.306;2023-05-10T10:37:51;16.10;99.90
11188;DHT22;5650;52.700;7.306;2023-05-10T10:40:27;16.20;99.90
11188;DHT22;5650;52.700;7.306;2023-05-10T10:42:58;16.30;99.90
11188;DHT22;5650;52.700;7.306;2023-05-10T10:45:25;16.30;99.90
11188;DHT22;5650;52.700;7.306;2023-05-10T10:48:21;16.30;99.90
11188;DHT22;5650;52.700;7.306;2023-05-10T10:50:57;16.20;99.90
11188;DHT22;5650;52.700;7.306;2023-05-10T10:53:33;16.20;99.90
11188;DHT22;5650;52.700;7.306;2023-05-10T10:56:09;16.10;99.90
11188;DHT22;5650;52.700;7.306;2023-05-10T10:58:38;16.10;99.90
11188;DHT22;5650;52.700;7.306;2023-05-10T11:01:15;16.10;99.90
11188;DHT22;5650;52.700;7.306;2023-05-10T11:04:20;16.10;99.90
11188;DHT22;5650;52.700;7.306;2023-05-10T11:06:50;16.20;99.90
11188;DHT22;5650;52.700;7.306;2023-05-10T11:09:41;16.40;99.90
11188;DHT22;5650;52.700;7.306;2023-05-10T11:12:10;16.60;99.90
11188;DHT22;5650;52.700;7.306;2023-05-10T11:14:37;16.80;99.90
11188;DHT22;5650;52.700;7.306;2023-05-10T11:17:22;17.10;99.90
11188;DHT22;5650;52.700;7.306;2023-05-10T11:20:08;17.20;99.90
11188;DHT22;5650;52.700;7.306;2023-05-10T11:22:51;17.40;99.90
11188;DHT22;5650;52.700;7.306;2023-05-10T11:25:31;17.60;99.90
11188;DHT22;5650;52.700;7.306;2023-05-10T11:28:03;17.80;99.90
11188;DHT22;5650;52.700;7.306;2023-05-10T11:30:31;17.90;99.90
11188;DHT22;5650;52.700;7.306;2023-05-10T11:32:58;17.90;99.90
11188;DHT22;5650;52.700;7.306;2023-05-10T11:35:28;17.90;99.90
11188;DHT22;5650;52.700;7.306;2023-05-10T11:37:56;17.90;99.90
11188;DHT22;5650;52.700;7.306;2023-05-10T11:40:23;17.90;99.90
11188;DHT22;5650;52.700;7.306;2023-05-10T11:42:56;17.70;99.90
11188;DHT22;5650;52.700;7.306;2023-05-10T11:45:32;17.60;99.90
11188;DHT22;5650;52.700;7.306;2023-05-10T11:48:00;17.50;99.90
11188;DHT22;5650;52.700;7.306;2023-05-10T11:50:28;17.60;99.90
11188;DHT22;5650;52.700;7.306;2023-05-10T11:52:56;17.60;99.90
11188;DHT22;5650;52.700;7.306;2023-05-10T11:55:24;17.70;99.90
11188;DHT22;5650;52.700;7.306;2023-05-10T11:57:54;17.80;99.90
11188;DHT22;5650;52.700;7.306;2023-05-10T12:00:22;17.80;99.90
11188;DHT22;5650;52.700;7.306;2023-05-10T12:02:50;17.90;99.90
11188;DHT22;5650;52.700;7.306;2023-05-10T12:05:21;18.10;99.90
11188;DHT22;5650;52.700;7.306;2023-05-10T12:07:48;18.30;99.90
11188;DHT22;5650;52.700;7.306;2023-05-10T12:10:15;18.40;99.90
11188;DHT22;5650;52.700;7.306;2023-05-10T12:12:45;18.50;99.90
11188;DHT22;5650;52.700;7.306;2023-05-10T12:15:19;18.40;99.90
11188;DHT22;5650;52.700;7.306;2023-05-10T12:17:51;18.40;99.90
11188;DHT22;5650;52.700;7.306;2023-05-10T12:20:20;18.40;99.90
11188;DHT22;5650;52.700;7.306;2023-05-10T12:22:49;18.40;99.90
11188;DHT22;5650;52.700;7.306;2023-05-10T12:25:18;18.50;99.90
11188;DHT22;5650;52.700;7.306;2023-05-10T12:27:50;18.40;99.90
11188;DHT22;5650;52.700;7.306;2023-05-10T12:30:29;18.30;99.90
11188;DHT22;5650;52.700;7.306;2023-05-10T12:33:01;18.30;99.90
11188;DHT22;5650;52.700;7.306;2023-05-10T12:35:32;18.30;99.90
11188;DHT22;5650;52.700;7.306;2023-05-10T12:37:59;18.30;99.90
11188;DHT22;5650;52.700;7.306;2023-05-10T12:40:29;18.30;99.90
11188;DHT22;5650;52.700;7.306;2023-05-10T12:42:57;18.30;99.90
11188;DHT22;5650;52.700;7.306;2023-05-10T12:45:24;18.00;99.90
11188;DHT22;5650;52.700;7.306;2023-05-10T12:47:51;17.90;99.90
11188;DHT22;5650;52.700;7.306;2023-05-10T12:50:20;17.80;99.90
11188;DHT22;5650;52.700;7.306;2023-05-10T12:52:47;17.80;99.90
11188;DHT22;5650;52.700;7.306;2023-05-10T12:55:16;17.70;99.90
11188;DHT22;5650;52.700;7.306;2023-05-10T12:57:43;17.70;99.90
11188;DHT22;5650;52.700;7.306;2023-05-10T13:00:14;17.80;99.90
11188;DHT22;5650;52.700;7.306;2023-05-10T13:02:49;17.80;99.90
11188;DHT22;5650;52.700;7.306;2023-05-10T13:05:16;17.80;99.90
11188;DHT22;5650;52.700;7.306;2023-05-10T13:07:45;17.90;99.90
11188;DHT22;5650;52.700;7.306;2023-05-10T13:10:12;17.90;99.90
11188;DHT22;5650;52.700;7.306;2023-05-10T13:12:39;17.90;99.90
11188;DHT22;5650;52.700;7.306;2023-05-10T13:15:07;17.90;99.90
11188;DHT22;5650;52.700;7.306;2023-05-10T13:17:35;17.80;99.90
11188;DHT22;5650;52.700;7.306;2023-05-10T13:20:05;17.80;99.90
11188;DHT22;5650;52.700;7.306;2023-05-10T13:22:32;17.90;99.90
11188;DHT22;5650;52.700;7.306;2023-05-10T13:25:01;17.90;99.90
11188;DHT22;5650;52.700;7.306;2023-05-10T13:27:29;18.00;99.90
11188;DHT22;5650;52.700;7.306;2023-05-10T13:29:56;18.00;99.90
11188;DHT22;5650;52.700;7.306;2023-05-10T13:32:25;18.00;99.90
11188;DHT22;5650;52.700;7.306;2023-05-10T13:34:52;18.10;99.90
11188;DHT22;5650;52.700;7.306;2023-05-10T13:37:19;18.10;99.90
11188;DHT22;5650;52.700;7.306;2023-05-10T13:39:47;18.00;99.90
11188;DHT22;5650;52.700;7.306;2023-05-10T13:42:17;18.00;99.90
11188;DHT22;5650;52.700;7.306;2023-05-10T13:44:44;18.00;99.90
11188;DHT22;5650;52.700;7.306;2023-05-10T13:47:11;18.00;99.90
11188;DHT22;5650;52.700;7.306;2023-05-10T13:49:38;18.00;99.90
11188;DHT22;5650;52.700;7.306;2023-05-10T13:52:06;18.00;99.90
11188;DHT22;5650;52.700;7.306;2023-05-10T13:54:33;18.10;99.90
11188;DHT22;5650;52.700;7.306;2023-05-10T13:57:01;18.20;99.90
11188;DHT22;5650;52.700;7.306;2023-05-10T13:59:30;18.30;99.90
11188;DHT22;5650;52.700;7.306;2023-05-10T14:01:58;18.30;99.90
11188;DHT22;5650;52.700;7.306;2023-05-10T14:04:25;18.30;99.90
11188;DHT22;5650;52.700;7.306;2023-05-10T14:06:52;18.40;99.90
11188;DHT22;5650;52.700;7.306;2023-05-10T14:09:19;18.30;99.90
11188;DHT22;5650;52.700;7.306;2023-05-10T14:11:47;18.30;99.90
11188;DHT22;5650;52.700;7.306;2023-05-10T14:14:14;18.20;99.90
11188;DHT22;5650;52.700;7.306;2023-05-10T14:16:44;18.20;99.90
11188;DHT22;5650;52.700;7.306;2023-05-10T14:19:11;18.10;99.90
11188;DHT22;5650;52.700;7.306;2023-05-10T14:21:39;18.00;99.90
11188;DHT22;5650;52.700;7.306;2023-05-10T14:24:06;17.90;99.90
11188;DHT22;5650;52.700;7.306;2023-05-10T14:26:33;17.80;99.90
11188;DHT22;5650;52.700;7.306;2023-05-10T14:29:01;17.70;99.90
11188;DHT22;5650;52.700;7.306;2023-05-10T14:31:28;17.70;99.90
11188;DHT22;5650;52.700;7.306;2023-05-10T14:33:57;17.70;99.90
11188;DHT22;5650;52.700;7.306;2023-05-10T14:36:25;17.80;99.90
11188;DHT22;5650;52.700;7.306;2023-05-10T14:38:52;17.80;99.90
11188;DHT22;5650;52.700;7.306;2023-05-10T14:41:19;17.90;99.90
11188;DHT22;5650;52.700;7.306;2023-05-10T14:43:46;18.00;99.90
11188;DHT22;5650;52.700;7.306;2023-05-10T14:46:13;18.10;99.90
11188;DHT22;5650;52.700;7.306;2023-05-10T14:48:41;18.20;99.90
11188;DHT22;5650;52.700;7.306;2023-05-10T14:51:10;18.20;99.90
11188;DHT22;5650;52.700;7.306;2023-05-10T14:53:37;18.20;99.90
11188;DHT22;5650;52.700;7.306;2023-05-10T14:56:04;18.20;99.90
11188;DHT22;5650;52.700;7.306;2023-05-10T14:58:32;18.20;99.90
11188;DHT22;5650;52.700;7.306;2023-05-10T15:00:59;18.10;99.90
11188;DHT22;5650;52.700;7.306;2023-05-10T15:03:26;18.20;99.90
11188;DHT22;5650;52.700;7.306;2023-05-10T15:05:53;18.30;99.90
11188;DHT22;5650;52.700;7.306;2023-05-10T15:08:23;18.30;99.90
11188;DHT22;5650;52.700;7.306;2023-05-10T15:10:51;18.30;99.90
11188;DHT22;5650;52.700;7.306;2023-05-10T15:13:18;18.30;99.90
11188;DHT22;5650;52.700;7.306;2023-05-10T15:15:45;18.40;99.90
11188;DHT22;5650;52.700;7.306;2023-05-10T15:18:13;18.40;99.90
11188;DHT22;5650;52.700;7.306;2023-05-10T15:20:40;18.40;99.90
11188;DHT22;5650;52.700;7.306;2023-05-10T15:23:07;18.40;99.90
11188;DHT22;5650;52.700;7.306;2023-05-10T15:25:36;18.40;99.90
11188;DHT22;5650;52.700;7.306;2023-05-10T15:28:03;18.40;99.90
11188;DHT22;5650;52.700;7.306;2023-05-10T15:30:31;18.50;99.90
11188;DHT22;5650;52.700;7.306;2023-05-10T15:32:58;18.40;99.90
11188;DHT22;5650;52.700;7.306;2023-05-10T15:35:25;18.30;99.90
11188;DHT22;5650;52.700;7.306;2023-05-10T15:37:53;18.20;99.90
11188;DHT22;5650;52.700;7.306;2023-05-10T15:40:20;18.20;99.90
11188;DHT22;5650;52.700;7.306;2023-05-10T15:42:48;18.10;99.90
11188;DHT22;5650;52.700;7.306;2023-05-10T15:45:16;17.90;99.90
11188;DHT22;5650;52.700;7.306;2023-05-10T15:47:44;17.90;99.90
11188;DHT22;5650;52.700;7.306;2023-05-10T15:50:11;17.80;99.90
11188;DHT22;5650;52.700;7.306;2023-05-10T15:52:39;17.70;99.90
11188;DHT22;5650;52.700;7.306;2023-05-10T15:55:07;17.50;99.90
11188;DHT22;5650;52.700;7.306;2023-05-10T15:57:37;17.40;99.90
11188;DHT22;5650;52.700;7.306;2023-05-10T16:00:08;17.30;99.90
11188;DHT22;5650;52.700;7.306;2023-05-10T16:02:36;17.30;99.90
11188;DHT22;5650;52.700;7.306;2023-05-10T16:05:04;17.20;99.90